createdAt,value
2022-09-22T00:03:00.257Z,99.90
2022-09-22T00:08:03.463Z,99.90
2022-09-22T00:13:06.507Z,99.90
2022-09-22T00:18:10.838Z,99.90
2022-09-22T00:23:15.143Z,99.90
2022-09-22T00:28:20.246Z,99.90
2022-09-22T00:33:24.916Z,99.90
2022-09-22T00:38:28.424Z,99.90
2022-09-22T00:43:36.121Z,99.90
2022-09-22T00:48:48.231Z,99.90
2022-09-22T00:53:52.430Z,99.90
2022-09-22T00:58:59.784Z,99.90
2022-09-22T01:04:04.854Z,99.90
2022-09-22T01:09:08.625Z,99.90
2022-09-22T01:14:24.886Z,99.90
2022-09-22T01:20:04.906Z,99.90
2022-09-22T01:25:28.513Z,99.90
2022-09-22T01:30:37.606Z,99.90
2022-09-22T01:35:49.071Z,99.90
2022-09-22T01:40:57.678Z,99.90
2022-09-22T01:46:06.266Z,99.90
2022-09-22T01:51:14.437Z,99.90
2022-09-22T01:56:19.968Z,99.90
2022-09-22T02:01:28.952Z,99.90
2022-09-22T02:06:35.847Z,99.90
2022-09-22T02:11:40.307Z,99.90
2022-09-22T02:16:45.075Z,99.90
2022-09-22T02:21:49.073Z,99.90
2022-09-22T02:26:52.990Z,99.90
2022-09-22T02:31:59.984Z,99.90
2022-09-22T02:37:11.458Z,99.90
2022-09-22T02:42:27.146Z,99.90
2022-09-22T02:47:36.850Z,99.90
2022-09-22T02:52:40.799Z,99.90
2022-09-22T02:57:44.052Z,99.90
2022-09-22T03:02:50.212Z,99.90
2022-09-22T03:07:53.213Z,99.90
2022-09-22T03:13:15.373Z,99.90
2022-09-22T03:18:20.203Z,99.90
2022-09-22T03:23:23.259Z,99.90
2022-09-22T03:28:26.328Z,99.90
2022-09-22T03:33:31.162Z,99.90
2022-09-22T03:38:34.885Z,99.90
2022-09-22T03:43:37.890Z,99.90
2022-09-22T03:48:45.078Z,99.90
2022-09-22T03:53:48.508Z,99.90
2022-09-22T03:58:51.493Z,99.90
2022-09-22T04:03:56.009Z,99.90
2022-09-22T04:08:59.311Z,99.90
2022-09-22T04:14:03.945Z,99.90
2022-09-22T04:19:08.500Z,99.90
2022-09-22T04:24:11.564Z,99.90
2022-09-22T04:29:14.531Z,99.90
2022-09-22T04:34:18.913Z,99.90
2022-09-22T04:39:23.924Z,99.90
2022-09-22T04:44:27.146Z,99.90
2022-09-22T04:49:31.493Z,99.90
2022-09-22T04:54:34.499Z,99.90
2022-09-22T04:59:37.624Z,99.90
2022-09-22T05:04:41.963Z,99.90
2022-09-22T05:09:44.977Z,99.90
2022-09-22T05:14:48.673Z,99.90
2022-09-22T05:19:55.777Z,99.90
2022-09-22T05:24:58.881Z,99.90
2022-09-22T05:30:02.603Z,99.90
2022-09-22T05:35:08.229Z,99.90
2022-09-22T05:40:11.533Z,99.90
2022-09-22T05:45:15.930Z,99.90
2022-09-22T05:50:21.392Z,99.90
2022-09-22T05:55:24.321Z,99.90
2022-09-22T06:00:28.059Z,99.90
2022-09-22T06:05:34.775Z,99.90
2022-09-22T06:10:40.393Z,99.90
2022-09-22T06:15:48.696Z,99.90
2022-09-22T06:20:56.097Z,99.90
2022-09-22T06:25:59.671Z,99.90
2022-09-22T06:31:03.086Z,99.90
2022-09-22T06:36:08.295Z,99.90
2022-09-22T06:41:11.481Z,99.90
2022-09-22T06:46:18.557Z,99.90
2022-09-22T06:51:24.441Z,99.90
2022-09-22T06:56:28.123Z,99.90
2022-09-22T07:01:31.585Z,99.90
2022-09-22T07:06:37.379Z,99.90
2022-09-22T07:11:40.747Z,99.90
2022-09-22T07:16:44.479Z,99.90
2022-09-22T07:21:48.963Z,99.90
2022-09-22T07:26:52.006Z,99.90
2022-09-22T07:31:56.888Z,99.90
2022-09-22T07:37:02.779Z,99.90
2022-09-22T07:42:05.936Z,99.90
2022-09-22T07:47:09.012Z,99.90
2022-09-22T07:52:14.008Z,99.90
2022-09-22T07:57:17.096Z,93.60
2022-09-22T08:02:20.559Z,92.80
2022-09-22T08:07:25.974Z,91.00
2022-09-22T08:12:29.010Z,91.80
2022-09-22T08:17:32.097Z,90.10
2022-09-22T08:22:37.129Z,91.70
2022-09-22T08:27:40.906Z,89.50
2022-09-22T08:32:43.938Z,91.60
2022-09-22T08:37:50.762Z,82.30
2022-09-22T08:42:55.646Z,82.90
2022-09-22T08:48:24.999Z,81.40
2022-09-22T08:53:32.777Z,80.10
2022-09-22T08:58:46.489Z,76.80
2022-09-22T09:03:57.696Z,85.30
2022-09-22T09:09:19.493Z,72.70
2022-09-22T09:14:56.739Z,76.20
2022-09-22T09:20:10.173Z,69.90
2022-09-22T09:25:22.866Z,68.00
2022-09-22T09:30:31.410Z,71.80
2022-09-22T09:35:42.081Z,73.30
2022-09-22T09:40:49.542Z,85.00
2022-09-22T09:46:04.494Z,91.80
2022-09-22T09:51:10.490Z,89.80
2022-09-22T09:56:24.740Z,90.90
2022-09-22T10:01:27.958Z,92.30
2022-09-22T10:06:31.988Z,92.90
2022-09-22T10:11:36.663Z,94.30
2022-09-22T10:16:51.696Z,94.40
2022-09-22T10:22:16.722Z,93.10
2022-09-22T10:27:24.162Z,93.00
2022-09-22T10:32:27.508Z,92.90
2022-09-22T10:37:31.203Z,93.20
2022-09-22T10:42:37.763Z,86.50
2022-09-22T10:47:57.590Z,87.70
2022-09-22T10:53:10.705Z,79.60
2022-09-22T10:58:31.313Z,75.00
2022-09-22T11:04:08.706Z,71.60
2022-09-22T11:15:09.822Z,63.60
2022-09-22T11:20:36.167Z,68.70
2022-09-22T11:25:58.660Z,69.80
2022-09-22T11:31:03.199Z,73.80
2022-09-22T11:36:17.960Z,76.50
2022-09-22T11:41:30.575Z,76.20
2022-09-22T11:46:47.332Z,74.70
2022-09-22T11:52:02.801Z,73.50
2022-09-22T11:57:12.546Z,66.20
2022-09-22T12:02:26.398Z,71.00
2022-09-22T12:07:33.469Z,67.90
2022-09-22T12:12:37.332Z,65.20
2022-09-22T12:17:51.613Z,58.80
2022-09-22T12:23:13.452Z,58.60
2022-09-22T12:28:18.948Z,60.50
2022-09-22T12:33:23.519Z,57.50
2022-09-22T12:38:26.851Z,57.10
2022-09-22T12:43:31.913Z,58.10
2022-09-22T12:48:37.856Z,58.60
2022-09-22T12:53:43.704Z,61.70
2022-09-22T12:58:47.903Z,61.70
2022-09-22T13:03:52.689Z,56.60
2022-09-22T13:09:09.391Z,54.20
2022-09-22T13:14:46.335Z,54.40
2022-09-22T13:19:56.996Z,53.10
2022-09-22T13:25:14.179Z,56.00
2022-09-22T13:30:17.260Z,55.90
2022-09-22T13:35:26.128Z,54.20
2022-09-22T13:40:34.779Z,57.30
2022-09-22T13:45:39.924Z,56.20
2022-09-22T13:50:51.685Z,60.40
2022-09-22T13:55:54.836Z,54.90
2022-09-22T14:01:15.522Z,57.10
2022-09-22T14:06:23.099Z,58.50
2022-09-22T14:11:30.841Z,61.60
2022-09-22T14:16:39.194Z,57.30
2022-09-22T14:21:49.644Z,56.10
2022-09-22T14:26:54.970Z,57.80
2022-09-22T14:32:02.652Z,58.90
2022-09-22T14:37:16.789Z,61.90
2022-09-22T14:42:25.799Z,70.80
2022-09-22T14:47:30.195Z,78.20
2022-09-22T14:52:38.508Z,81.40
2022-09-22T14:57:45.871Z,88.10
2022-09-22T15:02:53.657Z,92.30
2022-09-22T15:07:58.753Z,94.60
2022-09-22T15:13:19.579Z,97.50
2022-09-22T15:18:22.605Z,99.90
2022-09-22T15:23:31.945Z,99.90
2022-09-22T15:28:37.805Z,99.90
2022-09-22T15:33:40.792Z,99.90
2022-09-22T15:38:45.168Z,99.90
2022-09-22T15:43:49.151Z,99.90
2022-09-22T15:48:52.800Z,99.90
2022-09-22T15:53:57.341Z,99.90
2022-09-22T15:59:01.438Z,99.90
2022-09-22T16:04:04.644Z,99.90
2022-09-22T16:09:12.870Z,99.90
2022-09-22T16:14:16.134Z,99.90
2022-09-22T16:19:20.236Z,99.90
2022-09-22T16:24:28.010Z,99.90
2022-09-22T16:29:31.152Z,99.90
2022-09-22T16:34:35.143Z,99.90
2022-09-22T16:39:39.529Z,99.90
2022-09-22T16:44:42.626Z,99.90
2022-09-22T16:49:48.653Z,99.90
2022-09-22T16:54:52.951Z,99.90
2022-09-22T16:59:56.972Z,99.90
2022-09-22T17:04:59.965Z,99.90
2022-09-22T17:10:06.414Z,99.90
2022-09-22T17:15:12.104Z,99.90
2022-09-22T17:20:15.552Z,99.90
2022-09-22T17:25:20.043Z,99.90
2022-09-22T17:30:23.201Z,99.90
2022-09-22T17:35:26.288Z,99.90
2022-09-22T17:40:30.683Z,99.90
2022-09-22T17:45:33.716Z,99.90
2022-09-22T17:50:55.274Z,99.90
2022-09-22T17:56:05.017Z,99.90
2022-09-22T18:01:08.243Z,99.90
2022-09-22T18:06:15.879Z,99.90
2022-09-22T18:11:20.995Z,99.90
2022-09-22T18:16:30.202Z,99.90
2022-09-22T18:21:33.965Z,99.90
2022-09-22T18:26:38.622Z,99.90
2022-09-22T18:31:42.618Z,99.90
2022-09-22T18:36:46.022Z,99.90
2022-09-22T18:41:50.391Z,99.90
2022-09-22T18:46:54.015Z,99.90
2022-09-22T18:51:57.975Z,99.90
2022-09-22T18:57:05.358Z,99.90
2022-09-22T19:02:11.852Z,99.90
2022-09-22T19:07:36.628Z,99.90
2022-09-22T19:12:44.922Z,99.90
2022-09-22T19:17:49.614Z,99.90
2022-09-22T19:22:53.780Z,99.90
2022-09-22T19:27:58.565Z,99.90
2022-09-22T19:33:02.108Z,99.90
2022-09-22T19:38:05.327Z,99.90
2022-09-22T19:43:10.080Z,99.90
2022-09-22T19:48:14.275Z,99.90
2022-09-22T19:53:17.228Z,99.90
2022-09-22T19:58:22.024Z,99.90
2022-09-22T20:03:25.799Z,99.90
2022-09-22T20:08:29.624Z,99.90
2022-09-22T20:13:52.393Z,99.90
2022-09-22T20:18:55.592Z,99.90
2022-09-22T20:23:58.642Z,99.90
2022-09-22T20:29:02.992Z,99.90
2022-09-22T20:34:06.704Z,99.90
2022-09-22T20:39:13.309Z,99.90
2022-09-22T20:44:17.732Z,99.90
2022-09-22T20:49:20.715Z,99.90
2022-09-22T20:54:24.604Z,99.90
2022-09-22T20:59:28.867Z,99.90
2022-09-22T21:04:31.901Z,99.90
2022-09-22T21:09:53.443Z,99.90
2022-09-22T21:14:57.854Z,99.90
2022-09-22T21:20:01.170Z,99.90
2022-09-22T21:25:04.676Z,99.90
2022-09-22T21:30:10.025Z,99.90
2022-09-22T21:35:16.617Z,99.90
2022-09-22T21:40:20.249Z,99.90
2022-09-22T21:45:24.755Z,99.90
2022-09-22T21:50:28.261Z,99.90
2022-09-22T21:55:31.465Z,99.90
2022-09-22T22:00:51.223Z,99.90
2022-09-22T22:06:00.099Z,99.90
2022-09-22T22:11:06.047Z,99.90
2022-09-22T22:16:13.058Z,99.90
2022-09-22T22:21:17.824Z,99.90
2022-09-22T22:26:23.519Z,99.90
2022-09-22T22:31:28.058Z,99.90
2022-09-22T22:36:31.241Z,99.90
2022-09-22T22:41:34.245Z,99.90
2022-09-22T22:46:39.019Z,99.90
2022-09-22T22:51:43.542Z,99.90
2022-09-22T22:56:50.736Z,99.90
2022-09-22T23:01:55.748Z,99.90
2022-09-22T23:06:58.737Z,99.90
2022-09-22T23:12:01.953Z,99.90
2022-09-22T23:17:06.228Z,99.90
2022-09-22T23:22:09.506Z,99.90
2022-09-22T23:27:12.585Z,99.90
2022-09-22T23:32:17.410Z,99.90
2022-09-22T23:37:20.450Z,99.90
2022-09-22T23:42:24.499Z,99.90
2022-09-22T23:47:28.735Z,99.90
2022-09-22T23:52:31.712Z,99.90
2022-09-22T23:57:34.582Z,99.90
